createdAt,value
2023-03-11T03:58:50.347Z,0.00
2023-03-11T03:59:50.180Z,0.00
2023-03-11T04:00:50.833Z,0.00
2023-03-11T04:01:50.899Z,0.00
2023-03-11T04:02:50.872Z,0.00
2023-03-11T04:03:52.816Z,0.00
2023-03-11T04:04:52.386Z,0.00
2023-03-11T04:05:51.218Z,0.00
2023-03-11T04:06:51.074Z,0.00
2023-03-11T04:07:52.199Z,0.00
2023-03-11T04:08:51.428Z,0.00
2023-03-11T04:09:52.321Z,0.00
2023-03-11T04:10:52.481Z,0.00
2023-03-11T04:11:52.173Z,0.00
2023-03-11T04:12:52.192Z,0.00
2023-03-11T04:13:52.043Z,0.00
2023-03-11T04:14:53.080Z,0.00
2023-03-11T04:15:53.411Z,0.00
2023-03-11T04:16:52.468Z,0.00
2023-03-11T04:17:53.505Z,0.00
2023-03-11T04:18:53.580Z,0.00
2023-03-11T04:19:53.714Z,0.00
2023-03-11T04:20:53.971Z,0.00
2023-03-11T04:21:53.077Z,0.00
2023-03-11T04:22:55.050Z,0.00
2023-03-11T04:23:55.049Z,0.00
2023-03-11T04:24:53.410Z,0.00
2023-03-11T04:25:54.511Z,0.00
2023-03-11T04:26:55.187Z,0.00
2023-03-11T04:27:55.037Z,0.00
2023-03-11T04:28:53.916Z,0.00
2023-03-11T04:29:54.040Z,0.00
2023-03-11T04:30:54.317Z,0.00
2023-03-11T04:31:56.354Z,0.00
2023-03-11T04:32:55.401Z,0.00
2023-03-11T04:33:54.524Z,0.00
2023-03-11T04:34:54.634Z,0.00
2023-03-11T04:35:55.818Z,0.00
2023-03-11T04:36:55.181Z,0.00
2023-03-11T04:37:55.981Z,0.00
2023-03-11T04:38:55.376Z,0.00
2023-03-11T04:39:56.328Z,0.00
2023-03-11T04:40:55.934Z,0.00
2023-03-11T04:41:56.649Z,0.00
2023-03-11T04:42:57.115Z,0.00
2023-03-11T04:43:56.165Z,0.00
2023-03-11T04:44:56.093Z,0.00
2023-03-11T04:45:57.291Z,0.00
2023-03-11T04:46:56.334Z,0.00
2023-03-11T04:47:57.866Z,0.00
2023-03-11T04:48:56.962Z,0.00
2023-03-11T04:49:57.665Z,0.00
2023-03-11T04:50:57.770Z,0.00
2023-03-11T04:51:57.989Z,0.00
2023-03-11T04:52:57.215Z,0.00
2023-03-11T04:53:57.718Z,0.00
2023-03-11T04:54:57.575Z,0.00
2023-03-11T04:55:57.600Z,0.00
2023-03-11T04:56:58.083Z,0.00
2023-03-11T04:57:59.166Z,0.00
2023-03-11T04:58:58.810Z,0.00
2023-03-11T04:59:58.937Z,0.00
2023-03-11T05:00:58.257Z,0.00
2023-03-11T05:01:59.205Z,0.00
2023-03-11T05:02:58.910Z,0.00
2023-03-11T05:03:58.750Z,0.00
2023-03-11T05:04:59.180Z,0.00
2023-03-11T05:05:59.214Z,0.00
2023-03-11T05:06:59.829Z,0.00
2023-03-11T05:07:59.127Z,0.00
2023-03-11T05:09:00.560Z,0.00
2023-03-11T05:10:00.652Z,0.00
2023-03-11T05:11:00.102Z,0.00
2023-03-11T05:12:00.047Z,0.00
2023-03-11T05:13:00.093Z,0.00
2023-03-11T05:13:59.951Z,0.00
2023-03-11T05:14:59.986Z,0.00
2023-03-11T05:16:00.708Z,0.00
2023-03-11T05:17:01.905Z,0.00
2023-03-11T05:18:00.605Z,0.00
2023-03-11T05:21:17.000Z,0.00
2023-03-11T05:22:17.142Z,0.00
2023-03-11T05:23:17.317Z,0.00
2023-03-11T05:24:17.245Z,0.00
2023-03-11T05:25:17.341Z,0.00
2023-03-11T05:26:17.690Z,0.00
2023-03-11T05:27:17.544Z,0.00
2023-03-11T05:28:19.118Z,0.00
2023-03-11T05:29:18.363Z,0.00
2023-03-11T05:30:18.883Z,0.00
2023-03-11T05:31:18.974Z,0.00
2023-03-11T05:32:18.833Z,0.00
2023-03-11T05:33:20.363Z,0.00
2023-03-11T05:34:20.373Z,1.00
2023-03-11T05:35:18.560Z,1.00
2023-03-11T05:36:20.485Z,1.00
2023-03-11T05:37:18.837Z,2.00
2023-03-11T05:38:19.897Z,2.00
2023-03-11T05:39:19.103Z,2.00
2023-03-11T05:40:20.540Z,2.00
2023-03-11T05:41:19.409Z,3.00
2023-03-11T05:42:21.386Z,1.00
2023-03-11T05:43:19.987Z,3.00
2023-03-11T05:44:20.732Z,5.00
2023-03-11T05:45:20.258Z,4.00
2023-03-11T05:46:20.323Z,7.00
2023-03-11T05:47:20.150Z,5.00
2023-03-11T05:48:20.388Z,7.00
2023-03-11T05:49:21.283Z,6.00
2023-03-11T05:50:21.487Z,9.00
2023-03-11T05:51:20.996Z,8.00
2023-03-11T05:52:20.932Z,10.00
2023-03-11T05:53:22.061Z,11.00
2023-03-11T05:54:21.396Z,12.00
2023-03-11T05:55:21.171Z,14.00
2023-03-11T05:56:22.471Z,14.00
2023-03-11T05:57:21.858Z,15.00
2023-03-11T05:58:22.597Z,16.00
2023-03-11T05:59:21.877Z,17.00
2023-03-11T06:00:22.863Z,19.00
2023-03-11T06:01:22.814Z,20.00
2023-03-11T06:02:22.584Z,22.00
2023-03-11T06:03:22.645Z,23.00
2023-03-11T06:04:24.546Z,25.00
2023-03-11T06:05:22.983Z,26.00
2023-03-11T06:06:23.070Z,29.00
2023-03-11T06:07:22.975Z,27.00
2023-03-11T06:08:23.880Z,29.00
2023-03-11T06:09:24.054Z,30.00
2023-03-11T06:10:23.219Z,30.00
2023-03-11T06:11:23.840Z,31.00
2023-03-11T06:12:23.912Z,33.00
2023-03-11T06:13:23.876Z,35.00
2023-03-11T06:14:23.960Z,37.00
2023-03-11T06:15:45.102Z,38.00
2023-03-11T06:16:25.145Z,43.00
2023-03-11T06:17:25.068Z,47.00
2023-03-11T06:18:25.252Z,50.00
2023-03-11T06:19:24.669Z,50.00
2023-03-11T06:20:25.486Z,52.00
2023-03-11T06:21:25.180Z,53.00
2023-03-11T06:22:25.942Z,53.00
2023-03-11T06:23:25.206Z,52.00
2023-03-11T06:24:25.307Z,52.00
2023-03-11T06:25:25.298Z,53.00
2023-03-11T06:26:25.886Z,52.00
2023-03-11T06:27:26.426Z,52.00
2023-03-11T06:28:26.082Z,53.00
2023-03-11T06:29:26.751Z,54.00
2023-03-11T06:30:25.986Z,55.00
2023-03-11T06:31:26.489Z,57.00
2023-03-11T06:32:26.559Z,60.00
2023-03-11T06:33:26.529Z,61.00
2023-03-11T06:34:26.939Z,64.00
2023-03-11T06:35:27.525Z,66.00
2023-03-11T06:36:27.739Z,70.00
2023-03-11T06:37:27.813Z,81.00
2023-03-11T06:38:27.455Z,82.00
2023-03-11T06:39:27.793Z,82.00
2023-03-11T06:40:27.751Z,88.00
2023-03-11T06:43:44.887Z,97.00
2023-03-11T06:44:43.946Z,116.00
2023-03-11T06:45:44.882Z,110.00
2023-03-11T06:46:44.125Z,147.00
2023-03-11T06:47:45.097Z,162.00
2023-03-11T06:48:44.585Z,172.00
2023-03-11T06:49:44.795Z,187.00
2023-03-11T06:50:47.026Z,272.00
2023-03-11T06:51:45.258Z,65.00
2023-03-11T06:52:46.188Z,110.00
2023-03-11T06:53:45.040Z,115.00
2023-03-11T06:54:46.228Z,219.00
2023-03-11T06:55:45.096Z,223.00
2023-03-11T06:56:45.260Z,226.00
2023-03-11T06:57:45.382Z,228.00
2023-03-11T06:58:45.502Z,236.00
2023-03-11T06:59:45.646Z,244.00
2023-03-11T07:00:45.908Z,240.00
2023-03-11T07:01:45.999Z,249.00
2023-03-11T07:02:46.095Z,250.00
2023-03-11T07:03:46.243Z,260.00
2023-03-11T07:04:46.319Z,263.00
2023-03-11T07:05:46.477Z,269.00
2023-03-11T07:06:46.554Z,271.00
2023-03-11T07:07:46.688Z,279.00
2023-03-11T07:08:46.816Z,279.00
2023-03-11T07:09:46.995Z,282.00
2023-03-11T07:10:47.533Z,290.00
2023-03-11T07:11:47.236Z,291.00
2023-03-11T07:12:47.309Z,296.00
2023-03-11T07:13:47.446Z,301.00
2023-03-11T07:14:47.567Z,305.00
2023-03-11T07:15:48.386Z,310.00
2023-03-11T07:16:47.975Z,317.00
2023-03-11T07:17:47.990Z,316.00
2023-03-11T07:18:48.109Z,327.00
2023-03-11T07:19:48.261Z,330.00
2023-03-11T07:20:48.404Z,332.00
2023-03-11T07:21:48.579Z,338.00
2023-03-11T07:22:48.698Z,346.00
2023-03-11T07:23:48.802Z,344.00
2023-03-11T07:24:48.919Z,355.00
2023-03-11T07:25:49.025Z,353.00
2023-03-11T07:26:49.084Z,363.00
2023-03-11T07:27:49.234Z,367.00
2023-03-11T07:28:49.379Z,372.00
2023-03-11T07:29:49.559Z,376.00
2023-03-11T07:30:49.926Z,379.00
2023-03-11T07:31:49.873Z,383.00
2023-03-11T07:32:49.944Z,386.00
2023-03-11T07:33:50.101Z,393.00
2023-03-11T07:34:50.434Z,399.00
2023-03-11T07:35:50.395Z,405.00
2023-03-11T07:36:50.474Z,407.00
2023-03-11T07:37:50.596Z,406.00
2023-03-11T07:38:50.702Z,414.00
2023-03-11T07:39:50.791Z,417.00
2023-03-11T07:40:50.973Z,421.00
2023-03-11T07:41:51.088Z,419.00
2023-03-11T07:42:51.511Z,427.00
2023-03-11T07:43:51.344Z,428.00
2023-03-11T07:44:51.519Z,437.00
2023-03-11T07:45:51.665Z,442.00
2023-03-11T07:46:51.758Z,442.00
2023-03-11T07:47:51.941Z,444.00
2023-03-11T07:48:52.061Z,446.00
2023-03-11T07:49:52.171Z,452.00
2023-03-11T07:50:52.480Z,455.00
2023-03-11T07:51:52.506Z,458.00
2023-03-11T07:52:52.581Z,461.00
2023-03-11T07:53:52.700Z,470.00
2023-03-11T07:54:52.823Z,471.00
2023-03-11T07:55:52.926Z,474.00
2023-03-11T07:56:54.447Z,480.00
2023-03-11T07:57:53.116Z,487.00
2023-03-11T07:58:53.279Z,489.00
2023-03-11T07:59:53.649Z,491.00
2023-03-11T08:00:53.594Z,491.00
2023-03-11T08:01:53.757Z,497.00
2023-03-11T08:02:53.992Z,500.00
2023-03-11T08:03:55.603Z,504.00
2023-03-11T08:04:55.623Z,507.00
2023-03-11T08:05:54.300Z,509.00
2023-03-11T08:06:54.418Z,513.00
2023-03-11T08:07:55.058Z,517.00
2023-03-11T08:08:54.724Z,520.00
2023-03-11T08:09:54.841Z,527.00
2023-03-11T08:10:55.081Z,531.00
2023-03-11T08:11:55.055Z,533.00
2023-03-11T08:12:56.097Z,539.00
2023-03-11T08:13:55.378Z,545.00
2023-03-11T08:14:55.436Z,551.00
2023-03-11T08:15:55.645Z,549.00
2023-03-11T08:16:55.762Z,553.00
2023-03-11T08:17:55.953Z,557.00
2023-03-11T08:18:56.970Z,561.00
2023-03-11T08:19:56.166Z,558.00
2023-03-11T08:20:56.263Z,563.00
2023-03-11T08:21:56.574Z,567.00
2023-03-11T08:22:58.310Z,569.00
2023-03-11T08:23:56.895Z,573.00
2023-03-11T08:24:56.847Z,572.00
2023-03-11T08:25:57.006Z,574.00
2023-03-11T08:26:57.184Z,579.00
2023-03-11T08:27:57.320Z,578.00
2023-03-11T08:28:57.542Z,582.00
2023-03-11T08:29:57.524Z,597.00
2023-03-11T08:30:57.703Z,587.00
2023-03-11T08:31:57.872Z,584.00
2023-03-11T08:32:57.983Z,587.00
2023-03-11T08:33:58.186Z,586.00
2023-03-11T08:34:58.265Z,582.00
2023-03-11T08:35:58.472Z,587.00
2023-03-11T08:36:58.556Z,588.00
2023-03-11T08:37:58.713Z,588.00
2023-03-11T08:38:58.809Z,585.00
2023-03-11T08:39:58.935Z,584.00
2023-03-11T08:40:59.040Z,582.00
2023-03-11T08:41:59.210Z,583.00
2023-03-11T08:42:59.401Z,580.00
2023-03-11T08:43:59.492Z,583.00
2023-03-11T08:44:59.669Z,585.00
2023-03-11T08:45:59.843Z,586.00
2023-03-11T08:46:59.948Z,586.00
2023-03-11T08:48:00.108Z,590.00
2023-03-11T08:49:01.332Z,590.00
2023-03-11T08:50:00.416Z,591.00
2023-03-11T08:51:00.579Z,595.00
2023-03-11T08:52:00.680Z,596.00
2023-03-11T08:53:00.899Z,598.00
2023-03-11T08:54:01.034Z,598.00
2023-03-11T08:55:01.171Z,600.00
2023-03-11T08:56:01.559Z,604.00
2023-03-11T08:57:01.402Z,604.00
2023-03-11T08:58:01.503Z,600.00
2023-03-11T08:59:01.713Z,601.00
2023-03-11T09:00:01.730Z,605.00
2023-03-11T09:01:01.949Z,611.00
2023-03-11T09:02:03.473Z,614.00
2023-03-11T09:03:02.650Z,611.00
2023-03-11T09:04:03.707Z,612.00
2023-03-11T09:05:02.435Z,615.00
2023-03-11T09:06:03.536Z,605.00
2023-03-11T09:07:04.128Z,607.00
2023-03-11T09:08:04.967Z,609.00
2023-03-11T09:09:03.003Z,609.00
2023-03-11T09:10:03.106Z,610.00
2023-03-11T09:11:03.235Z,607.00
2023-03-11T09:12:03.333Z,579.00
2023-03-11T09:13:03.443Z,572.00
2023-03-11T09:14:03.578Z,615.00
2023-03-11T09:15:03.665Z,606.00
2023-03-11T09:16:03.839Z,607.00
2023-03-11T09:17:04.022Z,601.00
2023-03-11T09:18:04.085Z,598.00
2023-03-11T09:19:04.228Z,598.00
2023-03-11T09:20:04.345Z,596.00
2023-03-11T09:21:04.469Z,592.00
2023-03-11T09:22:04.624Z,594.00
2023-03-11T09:23:04.735Z,594.00
2023-03-11T09:24:04.864Z,592.00
2023-03-11T09:25:06.456Z,589.00
2023-03-11T09:26:05.125Z,589.00
2023-03-11T09:27:05.296Z,584.00
2023-03-11T09:28:05.445Z,584.00
2023-03-11T09:29:05.617Z,586.00
2023-03-11T09:30:05.846Z,583.00
2023-03-11T09:31:05.964Z,585.00
2023-03-11T09:32:06.036Z,577.00
2023-03-11T09:33:06.256Z,577.00
2023-03-11T09:34:06.307Z,578.00
2023-03-11T09:35:06.460Z,576.00
2023-03-11T09:36:06.675Z,576.00
2023-03-11T09:37:06.694Z,575.00
2023-03-11T09:38:18.659Z,577.00
2023-03-11T09:39:08.026Z,570.00
2023-03-11T09:40:07.191Z,568.00
2023-03-11T09:41:07.285Z,561.00
2023-03-11T09:42:07.433Z,563.00
2023-03-11T09:43:07.650Z,563.00
2023-03-11T09:44:09.186Z,565.00
2023-03-11T09:45:07.963Z,559.00
2023-03-11T09:46:07.985Z,560.00
2023-03-11T09:47:09.582Z,567.00
2023-03-11T09:48:08.217Z,558.00
2023-03-11T09:49:08.413Z,562.00
2023-03-11T09:50:08.457Z,563.00
2023-03-11T09:51:08.597Z,563.00
2023-03-11T09:52:08.780Z,568.00
2023-03-11T09:53:08.943Z,566.00
2023-03-11T09:54:09.157Z,560.00
2023-03-11T09:55:09.183Z,563.00
2023-03-11T09:56:09.315Z,565.00
2023-03-11T09:57:09.468Z,566.00
2023-03-11T09:58:09.635Z,568.00
2023-03-11T09:59:09.732Z,556.00
2023-03-11T10:00:09.907Z,553.00
2023-03-11T10:01:10.025Z,561.00
2023-03-11T10:02:10.450Z,567.00
2023-03-11T10:13:09.250Z,580.00
2023-03-11T10:15:24.450Z,576.00
2023-03-11T10:16:24.635Z,576.00
2023-03-11T10:17:24.642Z,570.00
2023-03-11T10:18:24.726Z,562.00
2023-03-11T10:19:24.971Z,561.00
2023-03-11T10:20:25.229Z,559.00
2023-03-11T10:21:25.790Z,564.00
2023-03-11T10:22:25.341Z,573.00
2023-03-11T10:23:25.769Z,581.00
2023-03-11T10:24:25.561Z,590.00
2023-03-11T10:25:25.671Z,579.00
2023-03-11T10:26:25.910Z,572.00
2023-03-11T10:27:26.182Z,567.00
2023-03-11T10:28:26.992Z,565.00
2023-03-11T10:29:27.094Z,565.00
2023-03-11T10:30:26.434Z,541.00
2023-03-11T10:31:26.746Z,556.00
2023-03-11T10:32:26.752Z,545.00
2023-03-11T10:33:26.685Z,556.00
2023-03-11T10:34:26.861Z,562.00
2023-03-11T10:35:28.190Z,562.00
2023-03-11T10:36:27.319Z,549.00
2023-03-11T10:37:38.886Z,559.00
2023-03-11T10:38:28.584Z,558.00
2023-03-11T10:39:28.331Z,557.00
2023-03-11T10:40:28.001Z,563.00
2023-03-11T10:41:27.739Z,593.00
2023-03-11T10:42:28.057Z,606.00
2023-03-11T10:43:28.506Z,586.00
2023-03-11T10:44:28.353Z,562.00
2023-03-11T10:45:28.165Z,562.00
2023-03-11T10:46:28.489Z,544.00
2023-03-11T10:47:28.499Z,555.00
2023-03-11T10:48:28.706Z,577.00
2023-03-11T10:49:28.917Z,589.00
2023-03-11T10:50:29.024Z,581.00
2023-03-11T10:51:29.033Z,567.00
2023-03-11T10:52:29.468Z,558.00
2023-03-11T10:53:29.331Z,569.00
2023-03-11T10:54:29.385Z,525.00
2023-03-11T10:55:29.762Z,514.00
2023-03-11T10:56:29.654Z,540.00
2023-03-11T10:57:30.288Z,559.00
2023-03-11T10:58:30.141Z,541.00
2023-03-11T10:59:30.203Z,548.00
2023-03-11T11:00:30.217Z,549.00
2023-03-11T11:01:30.496Z,551.00
2023-03-11T11:02:30.617Z,551.00
2023-03-11T11:03:30.728Z,549.00
2023-03-11T11:04:30.973Z,549.00
2023-03-11T11:05:31.358Z,548.00
2023-03-11T11:06:32.095Z,552.00
2023-03-11T11:07:31.379Z,551.00
2023-03-11T11:08:31.498Z,549.00
2023-03-11T11:09:31.857Z,549.00
2023-03-11T11:10:32.004Z,548.00
2023-03-11T11:11:31.928Z,550.00
2023-03-11T11:12:32.235Z,547.00
2023-03-11T11:13:32.250Z,482.00
2023-03-11T11:14:32.444Z,549.00
2023-03-11T11:15:33.320Z,550.00
2023-03-11T11:16:32.593Z,548.00
2023-03-11T11:17:32.936Z,544.00
2023-03-11T11:18:33.110Z,548.00
2023-03-11T11:19:33.180Z,549.00
2023-03-11T11:20:33.209Z,550.00
2023-03-11T11:21:33.427Z,545.00
2023-03-11T11:22:33.435Z,549.00
2023-03-11T11:23:33.547Z,541.00
2023-03-11T11:24:33.800Z,549.00
2023-03-11T11:25:34.041Z,550.00
2023-03-11T11:26:34.443Z,552.00
2023-03-11T11:27:34.287Z,548.00
2023-03-11T11:28:34.388Z,552.00
2023-03-11T11:29:34.469Z,551.00
2023-03-11T11:30:34.651Z,555.00
2023-03-11T11:31:34.857Z,553.00
2023-03-11T11:32:35.838Z,552.00
2023-03-11T11:33:35.129Z,549.00
2023-03-11T11:34:35.154Z,548.00
2023-03-11T11:35:35.280Z,550.00
2023-03-11T11:36:35.385Z,554.00
2023-03-11T11:37:35.670Z,548.00
2023-03-11T11:39:50.750Z,553.00
2023-03-11T11:40:50.898Z,556.00
2023-03-11T11:41:51.065Z,554.00
2023-03-11T11:42:51.973Z,547.00
2023-03-11T11:43:51.179Z,558.00
2023-03-11T11:44:51.780Z,567.00
2023-03-11T11:45:51.478Z,559.00
2023-03-11T11:46:52.505Z,569.00
2023-03-11T11:47:51.693Z,580.00
2023-03-11T11:48:51.930Z,575.00
2023-03-11T11:49:51.984Z,587.00
2023-03-11T11:50:52.361Z,594.00
2023-03-11T11:51:52.347Z,592.00
2023-03-11T11:52:53.476Z,588.00
2023-03-11T11:53:52.819Z,600.00
2023-03-11T11:54:53.258Z,596.00
2023-03-11T11:55:53.278Z,600.00
2023-03-11T11:56:53.090Z,601.00
2023-03-11T11:57:53.101Z,592.00
2023-03-11T11:58:53.188Z,586.00
2023-03-11T11:59:53.623Z,586.00
2023-03-11T12:00:53.379Z,581.00
2023-03-11T12:01:53.537Z,589.00
2023-03-11T12:02:54.747Z,585.00
2023-03-11T12:03:53.899Z,594.00
2023-03-11T12:04:54.032Z,608.00
2023-03-11T12:06:15.215Z,614.00
2023-03-11T12:06:54.340Z,620.00
2023-03-11T12:07:54.389Z,622.00
2023-03-11T12:08:54.521Z,612.00
2023-03-11T12:09:54.730Z,612.00
2023-03-11T12:10:54.936Z,594.00
2023-03-11T12:11:55.036Z,576.00
2023-03-11T12:12:55.469Z,576.00
2023-03-11T12:13:55.419Z,587.00
2023-03-11T12:14:55.382Z,598.00
2023-03-11T12:15:55.631Z,627.00
2023-03-11T12:16:56.942Z,614.00
2023-03-11T12:17:56.692Z,620.00
2023-03-11T12:18:56.946Z,618.00
2023-03-11T12:19:56.116Z,613.00
2023-03-11T12:20:56.572Z,615.00
2023-03-11T12:21:56.540Z,596.00
2023-03-11T12:22:56.860Z,598.00
2023-03-11T12:23:57.538Z,609.00
2023-03-11T12:24:58.135Z,604.00
2023-03-11T12:25:57.264Z,601.00
2023-03-11T12:26:57.205Z,614.00
2023-03-11T12:27:58.274Z,613.00
2023-03-11T12:28:58.165Z,614.00
2023-03-11T12:29:58.307Z,622.00
2023-03-11T12:30:58.472Z,621.00
2023-03-11T12:31:58.666Z,622.00
2023-03-11T12:32:58.271Z,616.00
2023-03-11T12:33:58.264Z,620.00
2023-03-11T12:34:58.265Z,624.00
2023-03-11T12:35:58.300Z,628.00
2023-03-11T12:36:58.484Z,627.00
2023-03-11T12:37:59.493Z,637.00
2023-03-11T12:38:59.587Z,633.00
2023-03-11T12:39:59.735Z,646.00
2023-03-11T12:40:59.885Z,639.00
2023-03-11T12:41:59.637Z,639.00
2023-03-11T12:42:59.740Z,639.00
2023-03-11T12:44:00.318Z,640.00
2023-03-11T12:44:59.760Z,652.00
2023-03-11T12:46:00.759Z,655.00
2023-03-11T12:47:01.167Z,648.00
2023-03-11T12:48:00.912Z,643.00
2023-03-11T12:49:00.082Z,642.00
2023-03-11T12:50:00.208Z,650.00
2023-03-11T12:51:00.621Z,649.00
2023-03-11T12:52:00.979Z,657.00
2023-03-11T12:53:02.322Z,672.00
2023-03-11T12:54:00.755Z,674.00
2023-03-11T12:55:01.130Z,678.00
2023-03-11T12:56:01.536Z,684.00
2023-03-11T12:57:02.242Z,672.00
2023-03-11T12:58:01.684Z,666.00
2023-03-11T12:59:01.545Z,672.00
2023-03-11T13:02:21.084Z,687.00
2023-03-11T13:03:19.043Z,685.00
2023-03-11T13:04:18.334Z,679.00
2023-03-11T13:05:18.404Z,682.00
2023-03-11T13:06:18.398Z,693.00
2023-03-11T13:07:18.711Z,699.00
2023-03-11T13:08:18.935Z,710.00
2023-03-11T13:09:19.223Z,771.00
2023-03-11T13:10:19.879Z,768.00
2023-03-11T13:11:19.987Z,741.00
2023-03-11T13:12:19.319Z,774.00
2023-03-11T13:13:19.527Z,870.00
2023-03-11T13:14:19.724Z,853.00
2023-03-11T13:15:19.862Z,667.00
2023-03-11T13:16:20.808Z,638.00
2023-03-11T13:17:20.836Z,679.00
2023-03-11T13:18:20.540Z,716.00
2023-03-11T13:19:21.666Z,734.00
2023-03-11T13:20:21.639Z,776.00
2023-03-11T13:21:20.484Z,802.00
2023-03-11T13:22:20.977Z,759.00
2023-03-11T13:23:20.908Z,819.00
2023-03-11T13:24:22.470Z,829.00
2023-03-11T13:25:21.132Z,806.00
2023-03-11T13:26:21.450Z,798.00
2023-03-11T13:27:22.950Z,806.00
2023-03-11T13:28:22.573Z,770.00
2023-03-11T13:29:21.968Z,774.00
2023-03-11T13:30:22.837Z,813.00
2023-03-11T13:31:22.333Z,826.00
2023-03-11T13:32:22.428Z,771.00
2023-03-11T13:33:22.623Z,719.00
2023-03-11T13:34:22.511Z,723.00
2023-03-11T13:35:22.640Z,799.00
2023-03-11T13:36:23.800Z,735.00
2023-03-11T13:37:22.848Z,727.00
2023-03-11T13:38:22.890Z,706.00
2023-03-11T13:39:23.112Z,764.00
2023-03-11T13:40:23.217Z,819.00
2023-03-11T13:41:23.365Z,837.00
2023-03-11T13:42:23.495Z,863.00
2023-03-11T13:43:23.658Z,862.00
2023-03-11T13:44:23.773Z,832.00
2023-03-11T13:45:23.976Z,801.00
2023-03-11T13:46:24.019Z,822.00
2023-03-11T13:47:24.122Z,862.00
2023-03-11T13:48:24.287Z,927.00
2023-03-11T13:49:24.415Z,998.00
2023-03-11T13:50:24.542Z,986.00
2023-03-11T13:51:24.654Z,1085.00
2023-03-11T13:52:24.891Z,1138.00
2023-03-11T13:53:24.944Z,1212.00
2023-03-11T13:54:27.038Z,1179.00
2023-03-11T13:55:25.297Z,1127.00
2023-03-11T13:56:25.389Z,1100.00
2023-03-11T13:57:25.526Z,1099.00
2023-03-11T13:58:25.660Z,1124.00
2023-03-11T13:59:25.887Z,1156.00
2023-03-11T14:00:25.874Z,1186.00
2023-03-11T14:01:26.180Z,1248.00
2023-03-11T14:02:26.163Z,1234.00
2023-03-11T14:03:26.273Z,1301.00
2023-03-11T14:04:26.435Z,1185.00
2023-03-11T14:05:26.501Z,1117.00
2023-03-11T14:06:26.621Z,1084.00
2023-03-11T14:07:26.862Z,1089.00
2023-03-11T14:08:26.929Z,1057.00
2023-03-11T14:09:27.102Z,1169.00
2023-03-11T14:10:27.163Z,1218.00
2023-03-11T14:11:27.346Z,1325.00
2023-03-11T14:12:27.526Z,1363.00
2023-03-11T14:13:27.532Z,1410.00
2023-03-11T14:14:27.628Z,1397.00
2023-03-11T14:15:27.799Z,1471.00
2023-03-11T14:16:28.007Z,1402.00
2023-03-11T14:17:28.107Z,1477.00
2023-03-11T14:18:28.497Z,1469.00
2023-03-11T14:19:28.425Z,1381.00
2023-03-11T14:20:28.659Z,1300.00
2023-03-11T14:21:28.671Z,1105.00
2023-03-11T14:22:28.803Z,985.00
2023-03-11T14:23:28.956Z,912.00
2023-03-11T14:24:29.174Z,853.00
2023-03-11T14:26:45.894Z,620.00
2023-03-11T14:27:47.808Z,613.00
2023-03-11T14:28:45.969Z,595.00
2023-03-11T14:29:45.973Z,578.00
2023-03-11T14:30:46.244Z,573.00
2023-03-11T14:31:46.268Z,558.00
2023-03-11T14:32:46.351Z,550.00
2023-03-11T14:33:47.358Z,540.00
2023-03-11T14:34:47.095Z,534.00
2023-03-11T14:35:47.242Z,522.00
2023-03-11T14:36:47.935Z,519.00
2023-03-11T14:37:47.208Z,513.00
2023-03-11T14:38:47.361Z,502.00
2023-03-11T14:39:51.092Z,525.00
2023-03-11T14:40:50.777Z,577.00
2023-03-11T14:41:48.461Z,590.00
2023-03-11T14:42:48.599Z,559.00
2023-03-11T14:43:48.724Z,516.00
2023-03-11T14:44:47.944Z,491.00
2023-03-11T14:45:48.478Z,467.00
2023-03-11T14:46:48.535Z,448.00
2023-03-11T14:47:48.405Z,435.00
2023-03-11T14:48:49.573Z,430.00
2023-03-11T14:49:49.568Z,425.00
2023-03-11T14:50:48.803Z,422.00
2023-03-11T14:51:49.035Z,417.00
2023-03-11T14:52:49.903Z,413.00
2023-03-11T14:53:49.150Z,407.00
2023-03-11T14:54:49.843Z,403.00
2023-03-11T14:55:49.824Z,395.00
2023-03-11T14:56:50.609Z,393.00
2023-03-11T14:57:50.150Z,391.00
2023-03-11T14:59:01.659Z,387.00
2023-03-11T14:59:51.023Z,383.00
2023-03-11T15:00:51.158Z,378.00
2023-03-11T15:01:51.757Z,375.00
2023-03-11T15:02:51.935Z,370.00
2023-03-11T15:03:50.525Z,365.00
2023-03-11T15:04:50.793Z,361.00
2023-03-11T15:05:51.056Z,356.00
2023-03-11T15:06:51.152Z,352.00
2023-03-11T15:07:52.067Z,349.00
2023-03-11T15:08:52.220Z,343.00
2023-03-11T15:09:52.309Z,339.00
2023-03-11T15:10:52.486Z,334.00
2023-03-11T15:11:51.962Z,329.00
2023-03-11T15:12:52.371Z,326.00
2023-03-11T15:13:53.112Z,321.00
2023-03-11T15:14:52.416Z,319.00
2023-03-11T15:15:53.216Z,313.00
2023-03-11T15:16:52.583Z,307.00
2023-03-11T15:17:53.560Z,306.00
2023-03-11T15:18:53.076Z,302.00
2023-03-11T15:19:53.775Z,298.00
2023-03-11T15:20:54.380Z,294.00
2023-03-11T15:21:53.603Z,293.00
2023-03-11T15:22:53.343Z,286.00
2023-03-11T15:23:54.548Z,281.00
2023-03-11T15:24:54.792Z,280.00
2023-03-11T15:25:54.580Z,278.00
2023-03-11T15:26:54.136Z,274.00
2023-03-11T15:27:54.396Z,269.00
2023-03-11T15:28:55.068Z,267.00
2023-03-11T15:29:54.487Z,266.00
2023-03-11T15:30:54.561Z,262.00
2023-03-11T15:31:54.613Z,256.00
2023-03-11T15:32:55.864Z,256.00
2023-03-11T15:33:55.801Z,253.00
2023-03-11T15:34:55.769Z,252.00
2023-03-11T15:35:55.681Z,249.00
2023-03-11T15:36:55.513Z,244.00
2023-03-11T15:37:55.687Z,238.00
2023-03-11T15:38:56.307Z,236.00
2023-03-11T15:39:57.126Z,230.00
2023-03-11T15:40:55.779Z,228.00
2023-03-11T15:41:56.260Z,224.00
2023-03-11T15:42:56.277Z,221.00
2023-03-11T15:43:56.349Z,218.00
2023-03-11T15:44:56.326Z,217.00
2023-03-11T15:45:56.773Z,215.00
2023-03-11T15:49:16.035Z,203.00
2023-03-11T15:50:23.526Z,201.00
2023-03-11T15:51:14.161Z,198.00
2023-03-11T15:52:13.083Z,195.00
2023-03-11T15:53:13.189Z,192.00
2023-03-11T15:54:13.352Z,190.00
2023-03-11T15:55:13.477Z,186.00
2023-03-11T15:56:13.632Z,182.00
2023-03-11T15:57:13.801Z,179.00
2023-03-11T15:58:13.969Z,176.00
2023-03-11T15:59:14.178Z,174.00
2023-03-11T16:00:14.238Z,172.00
2023-03-11T16:01:14.339Z,169.00
2023-03-11T16:12:23.115Z,143.00
2023-03-11T16:13:22.326Z,140.00
2023-03-11T16:14:22.111Z,138.00
2023-03-11T16:15:23.201Z,137.00
2023-03-11T16:16:23.351Z,137.00
2023-03-11T16:17:23.359Z,135.00
2023-03-11T16:18:23.473Z,133.00
2023-03-11T16:19:23.639Z,130.00
2023-03-11T16:20:23.277Z,131.00
2023-03-11T16:21:23.072Z,129.00
2023-03-11T16:22:23.653Z,129.00
2023-03-11T16:23:24.336Z,126.00
2023-03-11T16:24:24.512Z,122.00
2023-03-11T16:25:23.480Z,120.00
2023-03-11T16:26:23.628Z,119.00
2023-03-11T16:27:24.715Z,117.00
2023-03-11T16:28:25.154Z,113.00
2023-03-11T16:29:24.026Z,113.00
2023-03-11T16:30:24.630Z,109.00
2023-03-11T16:31:25.243Z,107.00
2023-03-11T16:32:25.751Z,103.00
2023-03-11T16:33:25.747Z,98.00
2023-03-11T16:34:25.668Z,94.00
2023-03-11T16:35:24.949Z,92.00
2023-03-11T16:36:26.135Z,89.00
2023-03-11T16:37:25.210Z,86.00
2023-03-11T16:38:25.963Z,84.00
2023-03-11T16:39:25.862Z,82.00
2023-03-11T16:40:25.931Z,80.00
2023-03-11T16:41:25.933Z,78.00
2023-03-11T16:42:25.959Z,77.00
2023-03-11T16:43:26.272Z,75.00
2023-03-11T16:44:27.087Z,73.00
2023-03-11T16:45:27.227Z,71.00
2023-03-11T16:46:27.400Z,68.00
2023-03-11T16:47:27.514Z,68.00
2023-03-11T16:48:27.777Z,66.00
2023-03-11T16:49:27.062Z,63.00
2023-03-11T16:50:27.308Z,60.00
2023-03-11T16:51:48.245Z,57.00
2023-03-11T16:52:27.399Z,56.00
2023-03-11T16:53:27.394Z,55.00
2023-03-11T16:54:27.707Z,56.00
2023-03-11T16:55:27.795Z,56.00
2023-03-11T16:56:27.809Z,55.00
2023-03-11T16:57:28.437Z,53.00
2023-03-11T16:58:28.347Z,52.00
2023-03-11T16:59:29.061Z,48.00
2023-03-11T17:00:29.603Z,47.00
2023-03-11T17:01:28.751Z,44.00
2023-03-11T17:02:28.566Z,44.00
2023-03-11T17:03:40.933Z,44.00
2023-03-11T17:04:30.175Z,44.00
2023-03-11T17:05:29.814Z,42.00
2023-03-11T17:06:29.304Z,41.00
2023-03-11T17:07:29.532Z,38.00
2023-03-11T17:08:29.741Z,38.00
2023-03-11T17:09:30.345Z,36.00
2023-03-11T17:10:30.996Z,33.00